createdAt,value
2019-01-22T00:01:14.231Z,96.18
2019-01-22T00:03:45.249Z,96.40
2019-01-22T00:06:16.254Z,96.60
2019-01-22T00:08:47.307Z,96.79
2019-01-22T00:11:18.234Z,96.88
2019-01-22T00:13:49.265Z,96.92
2019-01-22T00:16:20.223Z,96.86
2019-01-22T00:18:53.063Z,96.80
2019-01-22T00:21:25.739Z,96.86
2019-01-22T00:23:56.674Z,96.73
2019-01-22T00:26:29.532Z,96.64
2019-01-22T00:29:00.529Z,96.70
2019-01-22T00:31:31.457Z,96.75
2019-01-22T00:34:02.612Z,96.80
2019-01-22T00:36:33.574Z,96.72
2019-01-22T00:39:04.917Z,96.66
2019-01-22T00:41:35.614Z,96.64
2019-01-22T00:44:06.715Z,96.64
2019-01-22T00:46:37.655Z,96.61
2019-01-22T00:49:09.571Z,96.52
2019-01-22T00:51:39.965Z,96.53
2019-01-22T00:54:10.681Z,96.68
2019-01-22T00:56:41.642Z,96.62
2019-01-22T00:59:12.738Z,96.59
2019-01-22T01:01:43.753Z,96.64
2019-01-22T01:04:14.723Z,96.63
2019-01-22T01:06:47.688Z,96.64
2019-01-22T01:09:18.714Z,96.70
2019-01-22T01:11:49.746Z,96.67
2019-01-22T01:14:21.739Z,96.68
2019-01-22T01:16:52.873Z,96.66
2019-01-22T01:19:25.958Z,96.46
2019-01-22T01:21:56.802Z,96.17
2019-01-22T01:24:27.753Z,95.92
2019-01-22T01:27:00.003Z,95.55
2019-01-22T01:29:32.805Z,95.37
2019-01-22T01:32:03.359Z,95.23
2019-01-22T01:34:33.845Z,95.28
2019-01-22T01:37:04.211Z,95.09
2019-01-22T01:39:36.556Z,94.99
2019-01-22T01:42:06.935Z,94.94
2019-01-22T01:44:37.822Z,94.86
2019-01-22T01:47:09.409Z,95.02
2019-01-22T01:49:39.944Z,95.29
2019-01-22T01:52:10.478Z,95.46
2019-01-22T01:54:41.972Z,95.68
2019-01-22T01:57:12.902Z,95.89
2019-01-22T01:59:44.246Z,96.03
2019-01-22T02:02:14.986Z,96.24
2019-01-22T02:04:45.967Z,96.50
2019-01-22T02:07:16.925Z,96.83
2019-01-22T02:09:47.856Z,97.07
2019-01-22T02:12:22.926Z,97.36
2019-01-22T02:15:00.874Z,97.58
2019-01-22T02:18:23.062Z,97.83
2019-01-22T02:21:34.184Z,98.07
2019-01-22T02:24:41.743Z,98.52
2019-01-22T02:27:44.694Z,98.80
2019-01-22T02:30:36.654Z,99.07
2019-01-22T02:33:43.533Z,99.33
2019-01-22T02:37:01.535Z,99.58
2019-01-22T02:40:02.577Z,99.90
2019-01-22T02:43:05.326Z,100.00
2019-01-22T02:46:16.857Z,100.00
2019-01-22T02:49:24.595Z,100.00
2019-01-22T02:52:45.683Z,100.00
2019-01-22T02:55:25.811Z,100.00
2019-01-22T02:58:34.347Z,100.00
2019-01-22T03:01:43.432Z,99.98
2019-01-22T03:04:45.620Z,99.71
2019-01-22T03:07:32.643Z,99.55
2019-01-22T03:10:50.725Z,99.49
2019-01-22T03:14:13.084Z,99.39
2019-01-22T03:17:28.678Z,99.43
2019-01-22T03:20:25.889Z,99.59
2019-01-22T03:24:05.223Z,99.67
2019-01-22T03:27:14.155Z,99.71
2019-01-22T03:30:25.422Z,99.69
2019-01-22T03:33:51.448Z,99.71
2019-01-22T03:37:06.130Z,99.76
2019-01-22T03:39:57.653Z,99.97
2019-01-22T03:42:48.307Z,100.00
2019-01-22T03:45:56.803Z,100.00
2019-01-22T03:48:49.039Z,100.00
2019-01-22T03:51:44.620Z,100.00
2019-01-22T03:54:43.685Z,100.00
2019-01-22T03:57:37.552Z,100.00
2019-01-22T04:00:16.590Z,100.00
2019-01-22T04:02:48.544Z,100.00
2019-01-22T04:05:19.548Z,100.00
2019-01-22T04:07:50.512Z,100.00
2019-01-22T04:10:37.844Z,100.00
2019-01-22T04:13:10.686Z,100.00
2019-01-22T04:15:43.131Z,100.00
2019-01-22T04:18:15.579Z,100.00
2019-01-22T04:20:48.624Z,100.00
2019-01-22T04:23:45.304Z,100.00
2019-01-22T04:26:40.120Z,100.00
2019-01-22T04:29:28.644Z,100.00
2019-01-22T04:32:30.152Z,100.00
2019-01-22T04:35:48.208Z,100.00
2019-01-22T04:39:16.134Z,100.00
2019-01-22T04:42:44.042Z,100.00
2019-01-22T04:46:11.961Z,100.00
2019-01-22T04:49:40.040Z,100.00
2019-01-22T04:52:52.687Z,100.00
2019-01-22T04:56:01.805Z,100.00
2019-01-22T04:59:29.681Z,100.00
2019-01-22T05:02:57.626Z,100.00
2019-01-22T05:09:15.923Z,100.00
2019-01-22T05:12:43.796Z,100.00
2019-01-22T05:16:11.677Z,100.00
2019-01-22T05:19:19.177Z,100.00
2019-01-22T05:22:47.186Z,100.00
2019-01-22T05:25:41.305Z,100.00
2019-01-22T05:29:09.188Z,100.00
2019-01-22T05:32:37.053Z,100.00
2019-01-22T05:35:52.746Z,100.00
2019-01-22T05:42:24.477Z,100.00
2019-01-22T05:45:40.143Z,100.00
2019-01-22T05:48:55.629Z,100.00
2019-01-22T05:52:04.167Z,100.00
2019-01-22T05:55:21.429Z,100.00
2019-01-22T05:58:49.298Z,100.00
2019-01-22T06:01:30.718Z,100.00
2019-01-22T06:04:58.681Z,100.00
2019-01-22T06:08:10.954Z,100.00
2019-01-22T06:11:07.323Z,100.00
2019-01-22T06:14:35.184Z,100.00
2019-01-22T06:18:03.174Z,100.00
2019-01-22T06:21:25.527Z,100.00
2019-01-22T06:24:35.647Z,100.00
2019-01-22T06:27:32.472Z,100.00
2019-01-22T06:30:41.869Z,100.00
2019-01-22T06:34:09.789Z,100.00
2019-01-22T06:37:38.793Z,100.00
2019-01-22T06:40:50.978Z,100.00
2019-01-22T06:44:07.462Z,100.00
2019-01-22T06:47:35.326Z,100.00
2019-01-22T06:50:43.992Z,100.00
2019-01-22T06:53:55.724Z,100.00
2019-01-22T06:56:59.486Z,100.00
2019-01-22T07:00:27.443Z,100.00
2019-01-22T07:03:55.352Z,100.00
2019-01-22T07:07:23.220Z,100.00
2019-01-22T07:10:51.088Z,100.00
2019-01-22T07:14:19.050Z,100.00
2019-01-22T07:17:27.609Z,100.00
2019-01-22T07:20:55.474Z,100.00
2019-01-22T07:24:23.400Z,100.00
2019-01-22T07:27:39.376Z,100.00
2019-01-22T07:31:07.721Z,100.00
2019-01-22T07:34:16.241Z,100.00
2019-01-22T07:37:44.175Z,100.00
2019-01-22T07:40:52.642Z,100.00
2019-01-22T07:44:20.547Z,100.00
2019-01-22T07:47:48.518Z,100.00
2019-01-22T07:51:16.420Z,100.00
2019-01-22T07:54:44.276Z,100.00
2019-01-22T07:58:12.190Z,100.00
2019-01-22T08:01:40.119Z,100.00
2019-01-22T08:05:26.939Z,100.00
2019-01-22T08:08:56.631Z,99.64
2019-01-22T08:12:08.386Z,99.41
2019-01-22T08:15:18.523Z,99.37
2019-01-22T08:18:46.559Z,99.27
2019-01-22T08:22:14.405Z,99.05
2019-01-22T08:25:42.301Z,98.90
2019-01-22T08:28:50.648Z,98.73
2019-01-22T08:32:18.561Z,98.54
2019-01-22T08:35:46.416Z,98.45
2019-01-22T08:38:58.364Z,98.43
2019-01-22T08:42:26.235Z,98.18
2019-01-22T08:45:39.334Z,97.69
2019-01-22T08:49:07.200Z,97.27
2019-01-22T08:52:15.671Z,96.52
2019-01-22T08:55:31.963Z,95.61
2019-01-22T08:58:52.091Z,94.71
2019-01-22T09:02:19.951Z,93.37
2019-01-22T09:05:47.821Z,92.17
2019-01-22T09:09:15.926Z,91.63
2019-01-22T09:12:43.911Z,90.57
2019-01-22T09:16:11.812Z,90.06
2019-01-22T09:19:39.679Z,89.76
2019-01-22T09:23:07.541Z,89.49
2019-01-22T09:26:35.462Z,88.71
2019-01-22T09:29:35.676Z,88.91
2019-01-22T09:32:34.050Z,88.81
2019-01-22T09:35:42.650Z,89.18
2019-01-22T09:38:32.466Z,89.35
2019-01-22T09:41:22.328Z,88.88
2019-01-22T09:44:12.187Z,88.44
2019-01-22T09:47:02.037Z,87.99
2019-01-22T09:49:51.847Z,87.74
2019-01-22T09:52:41.768Z,86.94
2019-01-22T09:55:31.648Z,86.43
2019-01-22T09:58:22.418Z,86.24
2019-01-22T10:01:12.546Z,85.54
2019-01-22T10:04:03.657Z,85.52
2019-01-22T10:06:45.339Z,85.76
2019-01-22T10:09:35.155Z,85.95
2019-01-22T10:12:25.004Z,86.22
2019-01-22T10:18:20.310Z,84.68
2019-01-22T10:21:10.121Z,85.01
2019-01-22T10:23:59.929Z,85.63
2019-01-22T10:26:49.714Z,85.34
2019-01-22T10:29:39.507Z,84.57
2019-01-22T10:32:48.336Z,85.45
2019-01-22T10:35:38.348Z,85.54
2019-01-22T10:38:28.197Z,85.45
2019-01-22T10:41:18.275Z,86.04
2019-01-22T10:44:08.387Z,85.76
2019-01-22T10:46:45.136Z,84.95
2019-01-22T10:49:34.992Z,84.87
2019-01-22T10:52:24.851Z,84.41
2019-01-22T10:58:17.364Z,84.69
2019-01-22T11:01:07.190Z,84.25
2019-01-22T11:03:57.033Z,84.85
2019-01-22T11:06:46.879Z,85.31
2019-01-22T11:09:36.737Z,84.11
2019-01-22T11:12:26.630Z,84.61
2019-01-22T11:15:16.623Z,84.99
2019-01-22T11:18:07.254Z,85.26
2019-01-22T11:20:57.124Z,84.62
2019-01-22T11:23:47.055Z,84.31
2019-01-22T11:26:36.931Z,84.52
2019-01-22T11:29:07.349Z,85.05
2019-01-22T11:31:57.231Z,85.02
2019-01-22T11:34:47.106Z,85.05
2019-01-22T11:37:36.906Z,85.63
2019-01-22T11:40:46.694Z,85.63
2019-01-22T11:43:36.511Z,85.76
2019-01-22T11:46:26.418Z,86.40
2019-01-22T11:49:16.301Z,86.60
2019-01-22T11:55:27.289Z,86.72
2019-01-22T11:58:17.111Z,86.54
2019-01-22T12:01:07.090Z,86.86
2019-01-22T12:03:37.613Z,86.95
2019-01-22T12:06:27.492Z,86.70
2019-01-22T12:09:17.308Z,86.36
2019-01-22T12:12:07.238Z,86.21
2019-01-22T12:14:57.078Z,85.44
2019-01-22T12:17:27.652Z,85.32
2019-01-22T12:20:20.435Z,84.84
2019-01-22T12:23:10.315Z,84.37
2019-01-22T12:26:00.134Z,84.36
2019-01-22T12:28:30.926Z,85.21
2019-01-22T12:31:20.804Z,85.77
2019-01-22T12:34:10.722Z,86.41
2019-01-22T12:37:00.942Z,86.21
2019-01-22T12:39:50.793Z,86.44
2019-01-22T12:42:40.599Z,86.47
2019-01-22T12:48:23.716Z,86.39
2019-01-22T12:51:13.536Z,86.89
2019-01-22T12:54:03.353Z,86.50
2019-01-22T12:56:33.903Z,87.00
2019-01-22T12:59:04.330Z,86.79
2019-01-22T13:01:54.137Z,86.86
2019-01-22T13:04:43.923Z,87.26
2019-01-22T13:07:14.402Z,87.55
2019-01-22T13:09:44.912Z,87.58
2019-01-22T13:12:34.715Z,87.58
2019-01-22T13:18:30.513Z,87.48
2019-01-22T13:21:20.318Z,87.71
2019-01-22T13:23:50.699Z,87.93
2019-01-22T13:26:21.080Z,87.79
2019-01-22T13:29:10.906Z,88.06
2019-01-22T13:32:00.647Z,87.77
2019-01-22T13:34:50.525Z,87.99
2019-01-22T13:37:40.296Z,87.96
2019-01-22T13:40:30.347Z,88.52
2019-01-22T13:43:20.149Z,88.79
2019-01-22T13:46:10.003Z,89.01
2019-01-22T13:48:59.826Z,88.96
2019-01-22T13:51:49.645Z,89.49
2019-01-22T13:54:39.459Z,90.05
2019-01-22T13:57:29.286Z,90.35
2019-01-22T14:00:20.952Z,90.41
2019-01-22T14:03:10.826Z,90.36
2019-01-22T14:06:00.622Z,90.62
2019-01-22T14:08:50.452Z,90.65
2019-01-22T14:11:40.289Z,90.86
2019-01-22T14:14:30.161Z,91.21
2019-01-22T14:17:00.562Z,91.44
2019-01-22T14:19:50.358Z,91.34
2019-01-22T14:22:40.241Z,91.36
2019-01-22T14:25:30.114Z,91.44
2019-01-22T14:28:00.554Z,91.66
2019-01-22T14:30:50.338Z,91.79
2019-01-22T14:33:40.135Z,92.12
2019-01-22T14:36:29.918Z,92.27
2019-01-22T14:39:26.482Z,92.65
2019-01-22T14:42:11.524Z,92.76
2019-01-22T14:45:01.357Z,92.92
2019-01-22T14:47:51.302Z,93.16
2019-01-22T14:50:41.222Z,93.33
2019-01-22T14:53:30.998Z,93.60
2019-01-22T14:56:20.938Z,93.63
2019-01-22T14:58:51.384Z,93.76
2019-01-22T15:01:41.277Z,93.70
2019-01-22T15:04:31.083Z,93.07
2019-01-22T15:07:01.563Z,92.66
2019-01-22T15:09:51.335Z,92.58
2019-01-22T15:12:21.792Z,92.97
2019-01-22T15:15:12.899Z,93.13
2019-01-22T15:17:43.464Z,93.06
2019-01-22T15:20:33.460Z,93.12
2019-01-22T15:23:23.312Z,93.16
2019-01-22T15:26:13.119Z,93.00
2019-01-22T15:29:03.003Z,92.89
2019-01-22T15:31:33.549Z,93.10
2019-01-22T15:34:23.411Z,93.33
2019-01-22T15:37:00.110Z,93.24
2019-01-22T15:39:30.634Z,93.22
2019-01-22T15:42:20.459Z,93.31
2019-01-22T15:45:10.388Z,93.59
2019-01-22T15:48:00.257Z,93.78
2019-01-22T15:50:51.941Z,94.02
2019-01-22T15:53:41.733Z,94.23
2019-01-22T15:56:31.573Z,94.10
2019-01-22T15:59:21.427Z,93.96
2019-01-22T16:01:53.730Z,94.07
2019-01-22T16:04:43.551Z,94.19
2019-01-22T16:07:33.383Z,94.25
2019-01-22T16:10:04.397Z,94.22
2019-01-22T16:12:54.260Z,94.18
2019-01-22T16:15:44.062Z,93.60
2019-01-22T16:18:33.908Z,93.51
2019-01-22T16:21:04.745Z,93.41
2019-01-22T16:23:54.556Z,93.40
2019-01-22T16:26:44.396Z,93.56
2019-01-22T16:29:34.247Z,93.43
2019-01-22T16:32:04.785Z,93.33
2019-01-22T16:34:54.577Z,93.40
2019-01-22T16:37:44.396Z,93.57
2019-01-22T16:40:34.448Z,93.52
2019-01-22T16:43:24.098Z,93.68
2019-01-22T16:45:54.492Z,94.03
2019-01-22T16:48:24.925Z,93.78
2019-01-22T16:51:14.776Z,93.88
2019-01-22T16:54:04.824Z,93.95
2019-01-22T16:57:00.458Z,94.06
2019-01-22T16:59:37.091Z,94.15
2019-01-22T17:02:27.021Z,94.21
2019-01-22T17:05:17.085Z,93.90
2019-01-22T17:07:47.488Z,93.75
2019-01-22T17:10:18.690Z,93.66
2019-01-22T17:12:49.185Z,93.57
2019-01-22T17:16:18.408Z,93.70
2019-01-22T17:19:08.369Z,93.88
2019-01-22T17:21:38.810Z,93.82
2019-01-22T17:24:28.605Z,93.86
2019-01-22T17:27:18.454Z,93.91
2019-01-22T17:30:11.253Z,93.85
2019-01-22T17:33:00.623Z,93.79
2019-01-22T17:38:15.812Z,94.19
2019-01-22T17:41:05.714Z,93.68
2019-01-22T17:43:36.167Z,93.39
2019-01-22T17:46:25.946Z,93.58
2019-01-22T17:49:15.770Z,93.71
2019-01-22T17:51:46.339Z,93.81
2019-01-22T17:54:36.189Z,93.80
2019-01-22T17:57:25.968Z,93.53
2019-01-22T18:03:14.910Z,93.31
2019-01-22T18:06:05.080Z,93.33
2019-01-22T18:08:54.917Z,93.30
2019-01-22T18:11:44.747Z,93.21
2019-01-22T18:14:34.588Z,93.16
2019-01-22T18:17:05.297Z,92.92
2019-01-22T18:19:55.222Z,92.52
2019-01-22T18:22:26.395Z,92.41
2019-01-22T18:25:16.824Z,92.16
2019-01-22T18:27:47.239Z,91.69
2019-01-22T18:30:37.047Z,91.33
2019-01-22T18:33:26.897Z,91.14
2019-01-22T18:36:16.844Z,91.09
2019-01-22T18:39:08.429Z,91.12
2019-01-22T18:41:58.222Z,91.03
2019-01-22T18:44:48.083Z,90.99
2019-01-22T18:47:38.210Z,90.77
2019-01-22T18:50:28.015Z,90.28
2019-01-22T18:53:17.791Z,89.69
2019-01-22T18:56:07.633Z,89.56
2019-01-22T18:58:57.434Z,89.53
2019-01-22T19:01:47.300Z,89.44
2019-01-22T19:04:37.091Z,89.41
2019-01-22T19:07:26.904Z,89.14
2019-01-22T19:10:35.752Z,89.03
2019-01-22T19:13:25.605Z,89.13
2019-01-22T19:16:15.457Z,88.75
2019-01-22T19:18:45.926Z,88.21
2019-01-22T19:21:35.860Z,87.83
2019-01-22T19:24:25.911Z,87.61
2019-01-22T19:27:15.755Z,87.89
2019-01-22T19:30:08.271Z,87.98
2019-01-22T19:32:38.712Z,88.16
2019-01-22T19:35:28.582Z,88.34
2019-01-22T19:37:59.042Z,88.85
2019-01-22T19:40:48.834Z,89.22
2019-01-22T19:43:38.646Z,89.18
2019-01-22T19:46:28.530Z,89.24
2019-01-22T19:49:18.375Z,89.51
2019-01-22T19:51:48.812Z,89.85
2019-01-22T19:54:19.643Z,90.09
2019-01-22T19:57:09.460Z,90.33
2019-01-22T19:59:39.853Z,90.45
2019-01-22T20:02:29.679Z,90.35
2019-01-22T20:05:19.597Z,90.24
2019-01-22T20:08:09.747Z,90.20
2019-01-22T20:10:59.549Z,90.11
2019-01-22T20:13:49.341Z,89.68
2019-01-22T20:16:39.216Z,89.75
2019-01-22T20:19:29.142Z,89.93
2019-01-22T20:21:59.899Z,89.82
2019-01-22T20:24:49.729Z,89.69
2019-01-22T20:27:39.571Z,88.88
2019-01-22T20:30:31.797Z,88.60
2019-01-22T20:33:21.720Z,88.96
2019-01-22T20:36:11.543Z,89.41
2019-01-22T20:38:43.571Z,89.79
2019-01-22T20:41:33.381Z,89.66
2019-01-22T20:44:23.222Z,90.03
2019-01-22T20:46:53.974Z,90.44
2019-01-22T20:49:43.842Z,90.74
2019-01-22T20:52:33.709Z,90.81
2019-01-22T20:55:23.645Z,90.77
2019-01-22T20:58:13.513Z,90.54
2019-01-22T21:00:44.087Z,90.24
2019-01-22T21:03:33.865Z,89.97
2019-01-22T21:06:23.734Z,90.20
2019-01-22T21:09:13.511Z,90.33
2019-01-22T21:12:03.396Z,90.51
2019-01-22T21:14:53.179Z,90.66
2019-01-22T21:17:43.024Z,90.73
2019-01-22T21:20:32.802Z,90.67
2019-01-22T21:23:22.608Z,90.60
2019-01-22T21:25:53.146Z,90.45
2019-01-22T21:28:42.964Z,90.13
2019-01-22T21:31:32.722Z,90.00
2019-01-22T21:34:22.545Z,89.91
2019-01-22T21:37:12.314Z,89.87
2019-01-22T21:40:02.125Z,89.92
2019-01-22T21:42:52.077Z,89.57
2019-01-22T21:45:41.928Z,88.48
2019-01-22T21:48:31.746Z,88.56
2019-01-22T21:51:21.562Z,88.37
2019-01-22T21:54:11.747Z,88.60
2019-01-22T21:59:52.659Z,88.42
2019-01-22T22:02:28.758Z,87.91
2019-01-22T22:08:24.414Z,88.60
2019-01-22T22:11:14.181Z,88.84
2019-01-22T22:14:03.990Z,88.72
2019-01-22T22:16:53.745Z,88.92
2019-01-22T22:19:43.604Z,89.35
2019-01-22T22:22:33.393Z,89.53
2019-01-22T22:28:26.377Z,89.62
2019-01-22T22:31:16.236Z,89.80
2019-01-22T22:33:46.695Z,89.84
2019-01-22T22:36:36.476Z,89.99
2019-01-22T22:39:11.404Z,90.08
2019-01-22T22:42:01.238Z,90.13
2019-01-22T22:44:51.010Z,89.95
2019-01-22T22:47:21.414Z,90.00
2019-01-22T22:50:14.586Z,89.80
2019-01-22T22:53:04.390Z,89.63
2019-01-22T22:55:34.880Z,89.04
2019-01-22T22:58:05.406Z,88.86
2019-01-22T23:01:14.195Z,88.41
2019-01-22T23:04:04.119Z,88.53
2019-01-22T23:06:53.952Z,88.84
2019-01-22T23:09:43.842Z,89.19
2019-01-22T23:12:34.036Z,89.29
2019-01-22T23:15:23.839Z,89.16
2019-01-22T23:18:13.749Z,88.51
2019-01-22T23:21:03.562Z,88.76
2019-01-22T23:23:53.379Z,88.45
2019-01-22T23:26:43.180Z,88.36
2019-01-22T23:29:32.997Z,88.46
2019-01-22T23:32:22.801Z,88.73
2019-01-22T23:38:14.748Z,89.09
2019-01-22T23:41:04.544Z,89.43
2019-01-22T23:43:54.309Z,89.56
2019-01-22T23:46:44.071Z,89.42
2019-01-22T23:49:33.924Z,89.60
2019-01-22T23:52:23.682Z,89.47
2019-01-22T23:55:13.662Z,89.36
2019-01-22T23:58:03.439Z,89.42
